sensor_id;sensor_type;location;lat;lon;timestamp;temperature;humidity
28171;DHT22;15458;53.346;-1.688;2022-09-09T00:02:05;14.70;99.90
28171;DHT22;15458;53.346;-1.688;2022-09-09T00:04:36;14.70;99.90
28171;DHT22;15458;53.346;-1.688;2022-09-09T00:07:32;14.70;99.90
28171;DHT22;15458;53.346;-1.688;2022-09-09T00:13:06;14.80;99.90
28171;DHT22;15458;53.346;-1.688;2022-09-09T00:15:43;14.70;99.90
28171;DHT22;15458;53.346;-1.688;2022-09-09T00:18:24;14.70;99.90
28171;DHT22;15458;53.346;-1.688;2022-09-09T00:20:56;14.80;99.90
28171;DHT22;15458;53.346;-1.688;2022-09-09T00:23:35;14.80;99.90
28171;DHT22;15458;53.346;-1.688;2022-09-09T00:28:30;14.80;99.90
28171;DHT22;15458;53.346;-1.688;2022-09-09T00:31:08;14.80;99.90
28171;DHT22;15458;53.346;-1.688;2022-09-09T00:33:36;14.80;99.90
28171;DHT22;15458;53.346;-1.688;2022-09-09T00:36:12;14.90;99.90
28171;DHT22;15458;53.346;-1.688;2022-09-09T00:38:45;14.90;99.90
28171;DHT22;15458;53.346;-1.688;2022-09-09T00:41:21;14.90;99.90
28171;DHT22;15458;53.346;-1.688;2022-09-09T00:44:16;14.90;99.90
28171;DHT22;15458;53.346;-1.688;2022-09-09T00:46:50;14.90;99.90
28171;DHT22;15458;53.346;-1.688;2022-09-09T00:50:05;14.80;99.90
28171;DHT22;15458;53.346;-1.688;2022-09-09T00:58:35;14.90;99.90
28171;DHT22;15458;53.346;-1.688;2022-09-09T01:01:08;14.90;99.90
28171;DHT22;15458;53.346;-1.688;2022-09-09T01:03:40;14.90;99.90
28171;DHT22;15458;53.346;-1.688;2022-09-09T01:06:34;14.90;99.90
28171;DHT22;15458;53.346;-1.688;2022-09-09T01:09:22;14.90;99.90
28171;DHT22;15458;53.346;-1.688;2022-09-09T01:12:15;14.90;99.90
28171;DHT22;15458;53.346;-1.688;2022-09-09T01:20:14;14.90;99.90
28171;DHT22;15458;53.346;-1.688;2022-09-09T01:28:16;14.80;99.90
28171;DHT22;15458;53.346;-1.688;2022-09-09T01:30:44;14.80;99.90
28171;DHT22;15458;53.346;-1.688;2022-09-09T01:33:15;14.80;99.90
28171;DHT22;15458;53.346;-1.688;2022-09-09T01:35:57;14.80;99.90
28171;DHT22;15458;53.346;-1.688;2022-09-09T01:38:26;14.80;99.90
28171;DHT22;15458;53.346;-1.688;2022-09-09T01:40:53;14.80;99.90
28171;DHT22;15458;53.346;-1.688;2022-09-09T01:43:22;14.80;99.90
28171;DHT22;15458;53.346;-1.688;2022-09-09T01:45:52;14.80;99.90
28171;DHT22;15458;53.346;-1.688;2022-09-09T01:48:19;14.80;99.90
28171;DHT22;15458;53.346;-1.688;2022-09-09T01:50:46;14.80;99.90
28171;DHT22;15458;53.346;-1.688;2022-09-09T01:53:12;14.80;99.90
28171;DHT22;15458;53.346;-1.688;2022-09-09T01:55:41;14.70;99.90
28171;DHT22;15458;53.346;-1.688;2022-09-09T02:04:18;14.60;99.90
28171;DHT22;15458;53.346;-1.688;2022-09-09T02:06:48;14.60;99.90
28171;DHT22;15458;53.346;-1.688;2022-09-09T02:09:19;14.60;99.90
28171;DHT22;15458;53.346;-1.688;2022-09-09T02:11:49;14.60;99.90
28171;DHT22;15458;53.346;-1.688;2022-09-09T02:14:22;14.60;99.90
28171;DHT22;15458;53.346;-1.688;2022-09-09T02:17:00;14.50;99.90
28171;DHT22;15458;53.346;-1.688;2022-09-09T02:19:38;14.60;99.90
28171;DHT22;15458;53.346;-1.688;2022-09-09T02:22:07;14.60;99.90
28171;DHT22;15458;53.346;-1.688;2022-09-09T02:24:35;14.60;99.90
28171;DHT22;15458;53.346;-1.688;2022-09-09T02:27:04;14.60;99.90
28171;DHT22;15458;53.346;-1.688;2022-09-09T02:29:36;14.60;99.90
28171;DHT22;15458;53.346;-1.688;2022-09-09T02:32:06;14.60;99.90
28171;DHT22;15458;53.346;-1.688;2022-09-09T02:34:35;14.60;99.90
28171;DHT22;15458;53.346;-1.688;2022-09-09T02:37:03;14.60;99.90
28171;DHT22;15458;53.346;-1.688;2022-09-09T02:39:29;14.60;99.90
28171;DHT22;15458;53.346;-1.688;2022-09-09T02:41:55;14.60;99.90
28171;DHT22;15458;53.346;-1.688;2022-09-09T02:44:21;14.60;99.90
28171;DHT22;15458;53.346;-1.688;2022-09-09T02:47:22;14.60;99.90
28171;DHT22;15458;53.346;-1.688;2022-09-09T02:53:06;14.60;99.90
28171;DHT22;15458;53.346;-1.688;2022-09-09T02:55:47;14.60;99.90
28171;DHT22;15458;53.346;-1.688;2022-09-09T02:58:16;14.70;99.90
28171;DHT22;15458;53.346;-1.688;2022-09-09T03:00:44;14.60;99.90
28171;DHT22;15458;53.346;-1.688;2022-09-09T03:03:10;14.60;99.90
28171;DHT22;15458;53.346;-1.688;2022-09-09T03:05:36;14.60;99.90
28171;DHT22;15458;53.346;-1.688;2022-09-09T03:08:03;14.60;99.90
28171;DHT22;15458;53.346;-1.688;2022-09-09T03:10:29;14.60;99.90
28171;DHT22;15458;53.346;-1.688;2022-09-09T03:12:54;14.60;99.90
28171;DHT22;15458;53.346;-1.688;2022-09-09T03:15:21;14.60;99.90
28171;DHT22;15458;53.346;-1.688;2022-09-09T03:17:46;14.70;99.90
28171;DHT22;15458;53.346;-1.688;2022-09-09T03:20:12;14.70;99.90
28171;DHT22;15458;53.346;-1.688;2022-09-09T03:22:38;14.60;99.90
28171;DHT22;15458;53.346;-1.688;2022-09-09T03:25:04;14.70;99.90
28171;DHT22;15458;53.346;-1.688;2022-09-09T03:27:31;14.70;99.90
28171;DHT22;15458;53.346;-1.688;2022-09-09T03:29:56;14.60;99.90
28171;DHT22;15458;53.346;-1.688;2022-09-09T03:32:23;14.70;99.90
28171;DHT22;15458;53.346;-1.688;2022-09-09T03:34:51;14.60;99.90
28171;DHT22;15458;53.346;-1.688;2022-09-09T03:37:18;14.60;99.90
28171;DHT22;15458;53.346;-1.688;2022-09-09T03:39:44;14.60;99.90
28171;DHT22;15458;53.346;-1.688;2022-09-09T03:42:12;14.60;99.90
28171;DHT22;15458;53.346;-1.688;2022-09-09T03:44:39;14.60;99.90
28171;DHT22;15458;53.346;-1.688;2022-09-09T03:47:05;14.60;99.90
28171;DHT22;15458;53.346;-1.688;2022-09-09T03:49:31;14.60;99.90
28171;DHT22;15458;53.346;-1.688;2022-09-09T03:51:57;14.50;99.90
28171;DHT22;15458;53.346;-1.688;2022-09-09T03:54:24;14.50;99.90
28171;DHT22;15458;53.346;-1.688;2022-09-09T03:56:50;14.40;99.90
28171;DHT22;15458;53.346;-1.688;2022-09-09T03:59:16;14.40;99.90
28171;DHT22;15458;53.346;-1.688;2022-09-09T04:01:42;14.40;99.90
28171;DHT22;15458;53.346;-1.688;2022-09-09T04:04:08;14.40;99.90
28171;DHT22;15458;53.346;-1.688;2022-09-09T04:06:35;14.40;99.90
28171;DHT22;15458;53.346;-1.688;2022-09-09T04:09:00;14.40;99.90
28171;DHT22;15458;53.346;-1.688;2022-09-09T04:11:28;14.40;99.90
28171;DHT22;15458;53.346;-1.688;2022-09-09T04:13:54;14.30;99.90
28171;DHT22;15458;53.346;-1.688;2022-09-09T04:16:20;14.30;99.90
28171;DHT22;15458;53.346;-1.688;2022-09-09T04:18:46;14.30;99.90
28171;DHT22;15458;53.346;-1.688;2022-09-09T04:21:12;14.30;99.90
28171;DHT22;15458;53.346;-1.688;2022-09-09T04:23:38;14.30;99.90
28171;DHT22;15458;53.346;-1.688;2022-09-09T04:26:04;14.30;99.90
28171;DHT22;15458;53.346;-1.688;2022-09-09T04:28:33;14.20;99.90
28171;DHT22;15458;53.346;-1.688;2022-09-09T04:31:09;14.20;99.90
28171;DHT22;15458;53.346;-1.688;2022-09-09T04:33:36;14.20;99.90
28171;DHT22;15458;53.346;-1.688;2022-09-09T04:36:03;14.20;99.90
28171;DHT22;15458;53.346;-1.688;2022-09-09T04:38:29;14.20;99.90
28171;DHT22;15458;53.346;-1.688;2022-09-09T04:40:55;14.20;99.90
28171;DHT22;15458;53.346;-1.688;2022-09-09T04:43:21;14.10;99.90
28171;DHT22;15458;53.346;-1.688;2022-09-09T04:45:49;14.20;99.90
28171;DHT22;15458;53.346;-1.688;2022-09-09T04:48:17;14.10;99.90
28171;DHT22;15458;53.346;-1.688;2022-09-09T04:50:42;14.10;99.90
28171;DHT22;15458;53.346;-1.688;2022-09-09T04:53:08;14.10;99.90
28171;DHT22;15458;53.346;-1.688;2022-09-09T04:55:34;14.10;99.90
28171;DHT22;15458;53.346;-1.688;2022-09-09T04:58:08;14.10;99.90
28171;DHT22;15458;53.346;-1.688;2022-09-09T05:00:37;14.10;99.90
28171;DHT22;15458;53.346;-1.688;2022-09-09T05:03:04;14.10;99.90
28171;DHT22;15458;53.346;-1.688;2022-09-09T05:05:30;14.10;99.90
28171;DHT22;15458;53.346;-1.688;2022-09-09T05:08:04;14.10;99.90
28171;DHT22;15458;53.346;-1.688;2022-09-09T05:10:31;14.10;99.90
28171;DHT22;15458;53.346;-1.688;2022-09-09T05:12:57;14.10;99.90
28171;DHT22;15458;53.346;-1.688;2022-09-09T05:15:22;14.10;99.90
28171;DHT22;15458;53.346;-1.688;2022-09-09T05:17:48;14.20;99.90
28171;DHT22;15458;53.346;-1.688;2022-09-09T05:20:14;14.20;99.90
28171;DHT22;15458;53.346;-1.688;2022-09-09T05:22:39;14.20;99.90
28171;DHT22;15458;53.346;-1.688;2022-09-09T05:25:06;14.20;99.90
28171;DHT22;15458;53.346;-1.688;2022-09-09T05:27:34;14.20;99.90
28171;DHT22;15458;53.346;-1.688;2022-09-09T05:29:59;14.20;99.90
28171;DHT22;15458;53.346;-1.688;2022-09-09T05:32:25;14.20;99.90
28171;DHT22;15458;53.346;-1.688;2022-09-09T05:34:51;14.20;99.90
28171;DHT22;15458;53.346;-1.688;2022-09-09T05:37:18;14.20;99.90
28171;DHT22;15458;53.346;-1.688;2022-09-09T05:39:43;14.20;99.90
28171;DHT22;15458;53.346;-1.688;2022-09-09T05:42:09;14.30;99.90
28171;DHT22;15458;53.346;-1.688;2022-09-09T05:44:34;14.30;99.90
28171;DHT22;15458;53.346;-1.688;2022-09-09T05:47:00;14.30;99.90
28171;DHT22;15458;53.346;-1.688;2022-09-09T05:49:27;14.30;99.90
28171;DHT22;15458;53.346;-1.688;2022-09-09T05:51:53;14.30;99.90
28171;DHT22;15458;53.346;-1.688;2022-09-09T05:54:19;14.30;99.90
28171;DHT22;15458;53.346;-1.688;2022-09-09T05:56:45;14.30;99.90
28171;DHT22;15458;53.346;-1.688;2022-09-09T05:59:10;14.30;99.90
28171;DHT22;15458;53.346;-1.688;2022-09-09T06:01:38;14.30;99.90
28171;DHT22;15458;53.346;-1.688;2022-09-09T06:04:07;14.40;99.90
28171;DHT22;15458;53.346;-1.688;2022-09-09T06:06:35;14.40;99.90
28171;DHT22;15458;53.346;-1.688;2022-09-09T06:09:03;14.40;99.90
28171;DHT22;15458;53.346;-1.688;2022-09-09T06:11:32;14.40;99.90
28171;DHT22;15458;53.346;-1.688;2022-09-09T06:13:59;14.40;99.90
28171;DHT22;15458;53.346;-1.688;2022-09-09T06:16:28;14.40;99.90
28171;DHT22;15458;53.346;-1.688;2022-09-09T06:18:55;14.40;99.90
28171;DHT22;15458;53.346;-1.688;2022-09-09T06:21:26;14.40;99.90
28171;DHT22;15458;53.346;-1.688;2022-09-09T06:23:55;14.40;99.90
28171;DHT22;15458;53.346;-1.688;2022-09-09T06:26:29;14.40;99.90
28171;DHT22;15458;53.346;-1.688;2022-09-09T06:28:56;14.40;99.90
28171;DHT22;15458;53.346;-1.688;2022-09-09T06:31:25;14.40;99.90
28171;DHT22;15458;53.346;-1.688;2022-09-09T06:33:53;14.40;99.90
28171;DHT22;15458;53.346;-1.688;2022-09-09T06:36:28;14.40;99.90
28171;DHT22;15458;53.346;-1.688;2022-09-09T06:38:55;14.40;99.90
28171;DHT22;15458;53.346;-1.688;2022-09-09T06:41:22;14.40;99.90
28171;DHT22;15458;53.346;-1.688;2022-09-09T06:43:48;14.40;99.90
28171;DHT22;15458;53.346;-1.688;2022-09-09T06:46:20;14.40;99.90
28171;DHT22;15458;53.346;-1.688;2022-09-09T06:48:47;14.50;99.90
28171;DHT22;15458;53.346;-1.688;2022-09-09T06:51:18;14.40;99.90
28171;DHT22;15458;53.346;-1.688;2022-09-09T06:53:45;14.50;99.90
28171;DHT22;15458;53.346;-1.688;2022-09-09T06:58:41;14.40;99.90
28171;DHT22;15458;53.346;-1.688;2022-09-09T07:01:08;14.50;99.90
28171;DHT22;15458;53.346;-1.688;2022-09-09T07:03:35;14.50;99.90
28171;DHT22;15458;53.346;-1.688;2022-09-09T07:06:01;14.50;99.90
28171;DHT22;15458;53.346;-1.688;2022-09-09T07:08:27;14.50;99.90
28171;DHT22;15458;53.346;-1.688;2022-09-09T07:10:53;14.60;99.90
28171;DHT22;15458;53.346;-1.688;2022-09-09T07:13:28;14.70;99.90
28171;DHT22;15458;53.346;-1.688;2022-09-09T07:15:54;14.70;99.90
28171;DHT22;15458;53.346;-1.688;2022-09-09T07:18:20;14.80;99.90
28171;DHT22;15458;53.346;-1.688;2022-09-09T07:20:55;14.80;99.90
28171;DHT22;15458;53.346;-1.688;2022-09-09T07:23:23;14.90;99.90
28171;DHT22;15458;53.346;-1.688;2022-09-09T07:25:48;15.00;99.90
28171;DHT22;15458;53.346;-1.688;2022-09-09T07:28:15;15.00;99.90
28171;DHT22;15458;53.346;-1.688;2022-09-09T07:30:41;15.10;99.90
28171;DHT22;15458;53.346;-1.688;2022-09-09T07:33:08;15.10;99.90
28171;DHT22;15458;53.346;-1.688;2022-09-09T07:35:35;15.20;99.90
28171;DHT22;15458;53.346;-1.688;2022-09-09T07:38:02;15.30;99.90
28171;DHT22;15458;53.346;-1.688;2022-09-09T07:40:32;15.40;99.90
28171;DHT22;15458;53.346;-1.688;2022-09-09T07:42:59;15.40;99.90
28171;DHT22;15458;53.346;-1.688;2022-09-09T07:45:25;15.50;99.90
28171;DHT22;15458;53.346;-1.688;2022-09-09T07:47:53;15.50;99.90
28171;DHT22;15458;53.346;-1.688;2022-09-09T07:50:22;15.60;99.90
28171;DHT22;15458;53.346;-1.688;2022-09-09T07:52:50;15.70;99.90
28171;DHT22;15458;53.346;-1.688;2022-09-09T07:55:15;15.70;99.90
28171;DHT22;15458;53.346;-1.688;2022-09-09T07:57:43;15.70;99.90
28171;DHT22;15458;53.346;-1.688;2022-09-09T08:00:09;15.80;99.90
28171;DHT22;15458;53.346;-1.688;2022-09-09T08:02:36;15.80;99.90
28171;DHT22;15458;53.346;-1.688;2022-09-09T08:05:02;15.80;99.90
28171;DHT22;15458;53.346;-1.688;2022-09-09T08:07:28;15.90;99.90
28171;DHT22;15458;53.346;-1.688;2022-09-09T08:09:54;15.90;99.90
28171;DHT22;15458;53.346;-1.688;2022-09-09T08:12:21;15.90;99.90
28171;DHT22;15458;53.346;-1.688;2022-09-09T08:14:47;16.00;99.90
28171;DHT22;15458;53.346;-1.688;2022-09-09T08:17:14;16.00;99.90
28171;DHT22;15458;53.346;-1.688;2022-09-09T08:19:39;16.10;99.90
28171;DHT22;15458;53.346;-1.688;2022-09-09T08:22:05;16.20;99.90
28171;DHT22;15458;53.346;-1.688;2022-09-09T08:24:31;16.30;99.90
28171;DHT22;15458;53.346;-1.688;2022-09-09T08:26:57;16.40;99.90
28171;DHT22;15458;53.346;-1.688;2022-09-09T08:29:23;16.40;99.90
28171;DHT22;15458;53.346;-1.688;2022-09-09T08:31:51;16.50;99.90
28171;DHT22;15458;53.346;-1.688;2022-09-09T08:34:20;16.40;99.90
28171;DHT22;15458;53.346;-1.688;2022-09-09T08:36:47;16.50;99.90
28171;DHT22;15458;53.346;-1.688;2022-09-09T08:39:16;16.40;99.90
28171;DHT22;15458;53.346;-1.688;2022-09-09T08:50:52;16.80;99.90
28171;DHT22;15458;53.346;-1.688;2022-09-09T08:53:28;16.90;99.90
28171;DHT22;15458;53.346;-1.688;2022-09-09T08:55:59;17.00;99.90
28171;DHT22;15458;53.346;-1.688;2022-09-09T08:58:34;17.00;99.90
28171;DHT22;15458;53.346;-1.688;2022-09-09T09:03:53;17.30;99.90
28171;DHT22;15458;53.346;-1.688;2022-09-09T09:12:00;17.50;99.90
28171;DHT22;15458;53.346;-1.688;2022-09-09T09:14:33;17.50;99.90
28171;DHT22;15458;53.346;-1.688;2022-09-09T09:17:23;17.50;99.90
28171;DHT22;15458;53.346;-1.688;2022-09-09T09:19:50;17.60;99.90
28171;DHT22;15458;53.346;-1.688;2022-09-09T09:22:19;17.60;99.90
28171;DHT22;15458;53.346;-1.688;2022-09-09T09:32:55;18.10;99.90
28171;DHT22;15458;53.346;-1.688;2022-09-09T09:35:24;18.20;99.90
28171;DHT22;15458;53.346;-1.688;2022-09-09T09:37:50;18.30;99.90
28171;DHT22;15458;53.346;-1.688;2022-09-09T09:40:22;18.50;99.90
28171;DHT22;15458;53.346;-1.688;2022-09-09T09:43:02;18.70;99.90
28171;DHT22;15458;53.346;-1.688;2022-09-09T09:45:40;18.80;99.90
28171;DHT22;15458;53.346;-1.688;2022-09-09T09:48:10;18.80;99.90
28171;DHT22;15458;53.346;-1.688;2022-09-09T09:50:48;18.70;99.90
28171;DHT22;15458;53.346;-1.688;2022-09-09T09:53:37;18.70;99.90
28171;DHT22;15458;53.346;-1.688;2022-09-09T09:56:09;18.80;99.90
28171;DHT22;15458;53.346;-1.688;2022-09-09T09:58:49;19.00;99.90
28171;DHT22;15458;53.346;-1.688;2022-09-09T10:01:35;19.20;99.90
28171;DHT22;15458;53.346;-1.688;2022-09-09T10:04:12;19.40;99.90
28171;DHT22;15458;53.346;-1.688;2022-09-09T10:06:43;19.50;99.90
28171;DHT22;15458;53.346;-1.688;2022-09-09T10:09:32;19.70;99.90
28171;DHT22;15458;53.346;-1.688;2022-09-09T10:15:09;19.70;99.90
28171;DHT22;15458;53.346;-1.688;2022-09-09T10:20:35;19.60;99.90
28171;DHT22;15458;53.346;-1.688;2022-09-09T10:26:12;19.70;99.90
28171;DHT22;15458;53.346;-1.688;2022-09-09T10:29:02;19.90;99.90
28171;DHT22;15458;53.346;-1.688;2022-09-09T10:31:49;20.20;99.90
28171;DHT22;15458;53.346;-1.688;2022-09-09T10:34:55;20.50;99.90
28171;DHT22;15458;53.346;-1.688;2022-09-09T10:39:52;21.10;99.90
28171;DHT22;15458;53.346;-1.688;2022-09-09T10:42:28;21.40;99.90
28171;DHT22;15458;53.346;-1.688;2022-09-09T10:45:18;21.50;99.90
28171;DHT22;15458;53.346;-1.688;2022-09-09T10:48:09;21.50;99.10
28171;DHT22;15458;53.346;-1.688;2022-09-09T10:50:49;21.60;98.80
28171;DHT22;15458;53.346;-1.688;2022-09-09T10:56:06;21.80;96.30
28171;DHT22;15458;53.346;-1.688;2022-09-09T10:59:11;22.10;95.40
28171;DHT22;15458;53.346;-1.688;2022-09-09T11:01:43;22.30;93.90
28171;DHT22;15458;53.346;-1.688;2022-09-09T11:04:24;22.70;92.80
28171;DHT22;15458;53.346;-1.688;2022-09-09T11:06:54;22.90;91.70
28171;DHT22;15458;53.346;-1.688;2022-09-09T11:09:30;22.90;90.70
28171;DHT22;15458;53.346;-1.688;2022-09-09T11:11:58;22.90;90.30
28171;DHT22;15458;53.346;-1.688;2022-09-09T11:21:48;22.80;89.30
28171;DHT22;15458;53.346;-1.688;2022-09-09T11:24:39;22.90;89.40
28171;DHT22;15458;53.346;-1.688;2022-09-09T11:27:30;23.00;88.10
28171;DHT22;15458;53.346;-1.688;2022-09-09T11:38:27;23.30;88.10
28171;DHT22;15458;53.346;-1.688;2022-09-09T11:40:59;22.90;89.20
28171;DHT22;15458;53.346;-1.688;2022-09-09T11:43:34;22.60;90.40
28171;DHT22;15458;53.346;-1.688;2022-09-09T11:46:04;22.30;91.20
28171;DHT22;15458;53.346;-1.688;2022-09-09T11:48:57;22.10;92.00
28171;DHT22;15458;53.346;-1.688;2022-09-09T11:53:51;21.80;93.30
28171;DHT22;15458;53.346;-1.688;2022-09-09T11:56:44;21.80;93.90
28171;DHT22;15458;53.346;-1.688;2022-09-09T11:59:24;22.20;94.10
28171;DHT22;15458;53.346;-1.688;2022-09-09T12:02:11;22.70;93.20
28171;DHT22;15458;53.346;-1.688;2022-09-09T12:04:46;23.10;91.80
28171;DHT22;15458;53.346;-1.688;2022-09-09T12:09:56;23.40;89.10
28171;DHT22;15458;53.346;-1.688;2022-09-09T12:12:33;23.40;88.20
28171;DHT22;15458;53.346;-1.688;2022-09-09T12:17:44;23.00;87.80
28171;DHT22;15458;53.346;-1.688;2022-09-09T12:25:33;23.70;85.50
28171;DHT22;15458;53.346;-1.688;2022-09-09T12:28:13;24.30;83.50
28171;DHT22;15458;53.346;-1.688;2022-09-09T12:31:18;24.70;80.00
28171;DHT22;15458;53.346;-1.688;2022-09-09T12:33:48;25.20;77.50
28171;DHT22;15458;53.346;-1.688;2022-09-09T12:36:18;25.20;77.70
28171;DHT22;15458;53.346;-1.688;2022-09-09T12:38:44;24.80;79.50
28171;DHT22;15458;53.346;-1.688;2022-09-09T12:41:25;24.50;81.20
28171;DHT22;15458;53.346;-1.688;2022-09-09T12:44:09;24.00;82.80
28171;DHT22;15458;53.346;-1.688;2022-09-09T12:46:39;23.60;84.70
28171;DHT22;15458;53.346;-1.688;2022-09-09T12:51:55;23.00;87.90
28171;DHT22;15458;53.346;-1.688;2022-09-09T12:54:23;22.80;89.10
28171;DHT22;15458;53.346;-1.688;2022-09-09T12:56:50;22.50;90.10
28171;DHT22;15458;53.346;-1.688;2022-09-09T12:59:27;22.30;90.60
28171;DHT22;15458;53.346;-1.688;2022-09-09T13:02:00;21.90;90.40
28171;DHT22;15458;53.346;-1.688;2022-09-09T13:04:26;21.70;90.70
28171;DHT22;15458;53.346;-1.688;2022-09-09T13:06:52;21.50;90.80
28171;DHT22;15458;53.346;-1.688;2022-09-09T13:09:18;21.40;91.10
28171;DHT22;15458;53.346;-1.688;2022-09-09T13:11:50;21.30;91.50
28171;DHT22;15458;53.346;-1.688;2022-09-09T13:14:30;21.20;92.10
28171;DHT22;15458;53.346;-1.688;2022-09-09T13:17:02;21.10;92.50
28171;DHT22;15458;53.346;-1.688;2022-09-09T13:19:37;21.00;92.90
28171;DHT22;15458;53.346;-1.688;2022-09-09T13:25:05;20.70;93.60
28171;DHT22;15458;53.346;-1.688;2022-09-09T13:27:34;20.60;94.40
28171;DHT22;15458;53.346;-1.688;2022-09-09T13:35:27;20.20;97.00
28171;DHT22;15458;53.346;-1.688;2022-09-09T13:37:53;20.20;97.70
28171;DHT22;15458;53.346;-1.688;2022-09-09T13:40:21;20.20;98.30
28171;DHT22;15458;53.346;-1.688;2022-09-09T13:42:50;20.20;98.70
28171;DHT22;15458;53.346;-1.688;2022-09-09T13:45:23;20.20;99.00
28171;DHT22;15458;53.346;-1.688;2022-09-09T13:47:53;20.20;99.40
28171;DHT22;15458;53.346;-1.688;2022-09-09T13:50:29;20.20;99.60
28171;DHT22;15458;53.346;-1.688;2022-09-09T13:52:57;20.20;99.90
28171;DHT22;15458;53.346;-1.688;2022-09-09T13:55:25;20.20;99.90
28171;DHT22;15458;53.346;-1.688;2022-09-09T13:58:02;20.30;99.90
28171;DHT22;15458;53.346;-1.688;2022-09-09T14:00:33;20.40;99.90
28171;DHT22;15458;53.346;-1.688;2022-09-09T14:02:59;20.50;99.90
28171;DHT22;15458;53.346;-1.688;2022-09-09T14:05:29;20.60;99.90
28171;DHT22;15458;53.346;-1.688;2022-09-09T14:07:57;20.80;99.90
28171;DHT22;15458;53.346;-1.688;2022-09-09T14:10:23;21.20;99.90
28171;DHT22;15458;53.346;-1.688;2022-09-09T14:12:49;21.80;99.70
28171;DHT22;15458;53.346;-1.688;2022-09-09T14:15:15;22.20;98.70
28171;DHT22;15458;53.346;-1.688;2022-09-09T14:17:41;22.70;97.20
28171;DHT22;15458;53.346;-1.688;2022-09-09T14:20:08;23.10;96.10
28171;DHT22;15458;53.346;-1.688;2022-09-09T14:22:35;23.40;94.20
28171;DHT22;15458;53.346;-1.688;2022-09-09T14:25:02;23.60;92.70
28171;DHT22;15458;53.346;-1.688;2022-09-09T14:27:27;23.80;92.00
28171;DHT22;15458;53.346;-1.688;2022-09-09T14:29:53;23.80;91.20
28171;DHT22;15458;53.346;-1.688;2022-09-09T14:32:20;23.60;90.20
28171;DHT22;15458;53.346;-1.688;2022-09-09T14:34:48;23.40;89.30
28171;DHT22;15458;53.346;-1.688;2022-09-09T14:37:17;23.00;89.60
28171;DHT22;15458;53.346;-1.688;2022-09-09T14:39:44;22.60;90.20
28171;DHT22;15458;53.346;-1.688;2022-09-09T14:42:16;22.30;90.60
28171;DHT22;15458;53.346;-1.688;2022-09-09T14:44:54;21.90;91.10
28171;DHT22;15458;53.346;-1.688;2022-09-09T14:47:22;21.60;91.70
28171;DHT22;15458;53.346;-1.688;2022-09-09T14:49:48;21.30;92.10
28171;DHT22;15458;53.346;-1.688;2022-09-09T14:52:15;21.00;92.30
28171;DHT22;15458;53.346;-1.688;2022-09-09T14:54:41;20.80;92.80
28171;DHT22;15458;53.346;-1.688;2022-09-09T14:57:07;20.50;93.20
28171;DHT22;15458;53.346;-1.688;2022-09-09T14:59:33;20.20;93.60
28171;DHT22;15458;53.346;-1.688;2022-09-09T15:01:59;20.00;94.20
28171;DHT22;15458;53.346;-1.688;2022-09-09T15:04:29;19.80;94.80
28171;DHT22;15458;53.346;-1.688;2022-09-09T15:06:55;19.60;95.50
28171;DHT22;15458;53.346;-1.688;2022-09-09T15:09:21;19.50;96.10
28171;DHT22;15458;53.346;-1.688;2022-09-09T15:11:46;19.40;96.90
28171;DHT22;15458;53.346;-1.688;2022-09-09T15:14:12;19.30;97.40
28171;DHT22;15458;53.346;-1.688;2022-09-09T15:16:38;19.20;97.80
28171;DHT22;15458;53.346;-1.688;2022-09-09T15:19:05;19.10;98.20
28171;DHT22;15458;53.346;-1.688;2022-09-09T15:21:33;19.00;98.50
28171;DHT22;15458;53.346;-1.688;2022-09-09T15:24:00;18.90;99.00
28171;DHT22;15458;53.346;-1.688;2022-09-09T15:26:26;18.70;99.40
28171;DHT22;15458;53.346;-1.688;2022-09-09T15:28:52;18.70;99.90
28171;DHT22;15458;53.346;-1.688;2022-09-09T15:31:20;18.60;99.90
28171;DHT22;15458;53.346;-1.688;2022-09-09T15:33:54;18.50;99.90
28171;DHT22;15458;53.346;-1.688;2022-09-09T15:36:28;18.40;99.90
28171;DHT22;15458;53.346;-1.688;2022-09-09T15:38:54;18.40;99.90
28171;DHT22;15458;53.346;-1.688;2022-09-09T15:41:22;18.30;99.90
28171;DHT22;15458;53.346;-1.688;2022-09-09T15:43:49;18.30;99.90
28171;DHT22;15458;53.346;-1.688;2022-09-09T15:46:26;18.40;99.90
28171;DHT22;15458;53.346;-1.688;2022-09-09T15:48:57;18.40;99.90
28171;DHT22;15458;53.346;-1.688;2022-09-09T15:51:24;18.40;99.90
28171;DHT22;15458;53.346;-1.688;2022-09-09T15:54:13;18.50;99.90
28171;DHT22;15458;53.346;-1.688;2022-09-09T15:56:39;18.50;99.90
28171;DHT22;15458;53.346;-1.688;2022-09-09T15:59:05;18.50;99.90
28171;DHT22;15458;53.346;-1.688;2022-09-09T16:01:31;18.50;99.90
28171;DHT22;15458;53.346;-1.688;2022-09-09T16:03:58;18.50;99.90
28171;DHT22;15458;53.346;-1.688;2022-09-09T16:06:26;18.50;99.90
28171;DHT22;15458;53.346;-1.688;2022-09-09T16:08:54;18.60;99.90
28171;DHT22;15458;53.346;-1.688;2022-09-09T16:11:22;18.50;99.90
28171;DHT22;15458;53.346;-1.688;2022-09-09T16:13:50;18.50;99.90
28171;DHT22;15458;53.346;-1.688;2022-09-09T16:16:18;18.50;99.90
28171;DHT22;15458;53.346;-1.688;2022-09-09T16:18:55;18.50;99.90
28171;DHT22;15458;53.346;-1.688;2022-09-09T16:21:27;18.50;99.90
28171;DHT22;15458;53.346;-1.688;2022-09-09T16:23:55;18.50;99.90
28171;DHT22;15458;53.346;-1.688;2022-09-09T16:26:22;18.50;99.90
28171;DHT22;15458;53.346;-1.688;2022-09-09T16:28:49;18.40;99.90
28171;DHT22;15458;53.346;-1.688;2022-09-09T16:31:22;18.40;99.90
28171;DHT22;15458;53.346;-1.688;2022-09-09T16:33:49;18.30;99.90
28171;DHT22;15458;53.346;-1.688;2022-09-09T16:36:20;18.30;99.90
28171;DHT22;15458;53.346;-1.688;2022-09-09T16:38:46;18.30;99.90
28171;DHT22;15458;53.346;-1.688;2022-09-09T16:41:13;18.30;99.90
28171;DHT22;15458;53.346;-1.688;2022-09-09T16:43:42;18.30;99.90
28171;DHT22;15458;53.346;-1.688;2022-09-09T16:46:13;18.30;99.90
28171;DHT22;15458;53.346;-1.688;2022-09-09T16:48:44;18.30;99.90
28171;DHT22;15458;53.346;-1.688;2022-09-09T16:53:44;18.30;99.90
28171;DHT22;15458;53.346;-1.688;2022-09-09T16:56:15;18.20;99.90
28171;DHT22;15458;53.346;-1.688;2022-09-09T16:58:48;18.20;99.90
28171;DHT22;15458;53.346;-1.688;2022-09-09T17:01:15;18.10;99.90
28171;DHT22;15458;53.346;-1.688;2022-09-09T17:03:41;18.10;99.90
28171;DHT22;15458;53.346;-1.688;2022-09-09T17:06:11;18.00;99.90
28171;DHT22;15458;53.346;-1.688;2022-09-09T17:08:38;18.00;99.90
28171;DHT22;15458;53.346;-1.688;2022-09-09T17:11:13;18.00;99.90
28171;DHT22;15458;53.346;-1.688;2022-09-09T17:13:43;18.00;99.90
28171;DHT22;15458;53.346;-1.688;2022-09-09T17:16:10;17.90;99.90
28171;DHT22;15458;53.346;-1.688;2022-09-09T17:18:37;17.90;99.90
28171;DHT22;15458;53.346;-1.688;2022-09-09T17:21:07;17.90;99.90
28171;DHT22;15458;53.346;-1.688;2022-09-09T17:23:35;17.90;99.90
28171;DHT22;15458;53.346;-1.688;2022-09-09T17:26:07;17.80;99.90
28171;DHT22;15458;53.346;-1.688;2022-09-09T17:28:34;17.80;99.90
28171;DHT22;15458;53.346;-1.688;2022-09-09T17:31:01;17.80;99.90
28171;DHT22;15458;53.346;-1.688;2022-09-09T17:33:29;17.70;99.90